Terminal Aerodrome Forecast
Issued by NWS

Home | Current Version | Previous Version | Text Only | Print | Product List | Glossary On
Versions: 1 2 3 4 5 6 7 8 9 10 11 12 13 14 15 16 17 18 19 20 21 22 23 24 25 26
935
FTUS45 KPSR 242050 AAA
TAFPHX
TAF AMD
KPHX 242050Z 2421/2518 27009G14KT P6SM SCT180
     FM250300 26004KT P6SM BKN180
     FM250900 10007KT P6SM BKN180=

USA.gov is the U.S. government's official web portal to all federal, state and local government web resources and services.